createdAt,value
2023-01-29T00:01:09.862Z,3.53
2023-01-29T00:03:36.458Z,3.22
2023-01-29T00:06:08.432Z,2.98
2023-01-29T00:08:38.461Z,3.13
2023-01-29T00:11:07.481Z,3.04
2023-01-29T00:13:34.580Z,2.96
2023-01-29T00:16:01.735Z,2.82
2023-01-29T00:18:29.995Z,2.79
2023-01-29T00:20:56.687Z,2.56
2023-01-29T00:23:23.504Z,2.27
2023-01-29T00:25:49.957Z,2.29
2023-01-29T00:28:16.954Z,2.42
2023-01-29T00:30:43.668Z,2.50
2023-01-29T00:33:11.869Z,2.37
2023-01-29T00:35:40.053Z,2.25
2023-01-29T00:38:06.600Z,2.16
2023-01-29T00:40:52.986Z,2.15
2023-01-29T00:46:28.678Z,2.03
2023-01-29T00:48:55.180Z,2.20
2023-01-29T00:51:21.657Z,2.37
2023-01-29T00:53:48.081Z,2.42
2023-01-29T00:56:14.624Z,2.63
2023-01-29T00:58:41.080Z,2.94
2023-01-29T01:01:08.319Z,3.14
2023-01-29T01:03:42.077Z,3.20
2023-01-29T01:06:10.811Z,3.26
2023-01-29T01:08:55.840Z,3.15
2023-01-29T01:11:22.459Z,3.15
2023-01-29T01:13:48.898Z,3.28
2023-01-29T01:16:18.662Z,3.21
2023-01-29T01:18:45.476Z,3.23
2023-01-29T01:21:11.879Z,3.30
2023-01-29T01:23:39.281Z,3.26
2023-01-29T01:26:10.909Z,3.19
2023-01-29T01:28:38.156Z,3.16
2023-01-29T01:31:12.712Z,3.02
2023-01-29T01:33:40.386Z,3.06
2023-01-29T01:36:10.911Z,3.15
2023-01-29T01:38:44.355Z,3.09
2023-01-29T01:41:12.946Z,3.01
2023-01-29T01:44:00.760Z,3.10
2023-01-29T01:46:36.795Z,3.07
2023-01-29T01:49:18.863Z,3.19
2023-01-29T01:51:48.752Z,3.22
2023-01-29T01:54:24.961Z,3.15
2023-01-29T01:57:04.871Z,3.11
2023-01-29T01:59:33.727Z,2.84
2023-01-29T02:02:18.715Z,2.87
2023-01-29T02:05:07.581Z,2.75
2023-01-29T02:07:54.591Z,2.83
2023-01-29T02:10:21.997Z,2.80
2023-01-29T02:12:48.470Z,2.96
2023-01-29T02:15:14.973Z,2.83
2023-01-29T02:17:41.681Z,2.76
2023-01-29T02:20:14.106Z,2.85
2023-01-29T02:22:49.870Z,2.85
2023-01-29T02:25:16.228Z,2.95
2023-01-29T02:27:48.911Z,2.78
2023-01-29T02:30:32.377Z,2.70
2023-01-29T02:33:14.028Z,2.67
2023-01-29T02:35:46.479Z,2.81
2023-01-29T02:38:21.704Z,2.75
2023-01-29T02:40:56.543Z,2.70
2023-01-29T02:43:32.828Z,2.60
2023-01-29T02:46:05.294Z,2.57
2023-01-29T02:48:46.576Z,2.65
2023-01-29T02:51:38.241Z,2.52
2023-01-29T02:54:13.907Z,2.53
2023-01-29T02:56:48.921Z,2.65
2023-01-29T02:59:20.340Z,2.60
2023-01-29T03:01:57.999Z,2.51
2023-01-29T03:04:29.344Z,2.39
2023-01-29T03:07:01.190Z,2.33
2023-01-29T03:09:33.769Z,2.28
2023-01-29T03:12:20.102Z,2.26
2023-01-29T03:15:09.247Z,2.22
2023-01-29T03:17:47.020Z,2.19
2023-01-29T03:20:20.684Z,2.35
2023-01-29T03:22:54.481Z,2.43
2023-01-29T03:25:42.600Z,2.56
2023-01-29T03:28:29.922Z,2.58
2023-01-29T03:31:19.216Z,2.44
2023-01-29T03:34:09.101Z,2.23
2023-01-29T03:36:47.159Z,2.26
2023-01-29T03:39:15.372Z,2.28
2023-01-29T03:41:53.249Z,2.48
2023-01-29T03:44:26.454Z,2.45
2023-01-29T03:46:56.846Z,2.44
2023-01-29T03:49:44.714Z,2.39
2023-01-29T03:52:19.620Z,2.38
2023-01-29T03:55:14.104Z,2.23
2023-01-29T03:58:31.832Z,2.15
2023-01-29T04:01:10.134Z,2.01
2023-01-29T04:04:11.771Z,1.93
2023-01-29T04:06:41.138Z,1.78
2023-01-29T04:09:14.633Z,1.97
2023-01-29T04:11:50.082Z,1.95
2023-01-29T04:14:17.445Z,2.06
2023-01-29T04:16:51.392Z,2.05
2023-01-29T04:19:18.851Z,2.03
2023-01-29T04:21:49.212Z,2.02
2023-01-29T04:24:18.139Z,2.08
2023-01-29T04:27:14.075Z,2.17
2023-01-29T04:30:07.015Z,2.17
2023-01-29T04:33:05.953Z,2.23
2023-01-29T04:35:48.269Z,2.11
2023-01-29T04:38:25.643Z,2.15
2023-01-29T04:41:11.328Z,2.15
2023-01-29T04:43:47.954Z,2.26
2023-01-29T04:46:18.508Z,2.38
2023-01-29T04:48:57.853Z,2.46
2023-01-29T04:51:48.996Z,2.55
2023-01-29T04:54:18.167Z,2.67
2023-01-29T04:57:09.265Z,2.75
2023-01-29T04:59:42.335Z,2.79
2023-01-29T05:02:11.850Z,2.75
2023-01-29T05:04:41.074Z,2.61
2023-01-29T05:07:15.242Z,2.52
2023-01-29T05:09:46.145Z,2.26
2023-01-29T05:12:17.457Z,2.05
2023-01-29T05:14:45.587Z,1.88
2023-01-29T05:17:18.311Z,2.02
2023-01-29T05:19:46.501Z,1.94
2023-01-29T05:22:16.894Z,1.85
2023-01-29T05:24:43.431Z,1.93
2023-01-29T05:27:41.071Z,1.93
2023-01-29T05:30:10.339Z,2.00
2023-01-29T05:32:36.885Z,1.97
2023-01-29T05:35:03.479Z,1.97
2023-01-29T05:37:29.965Z,1.84
2023-01-29T05:39:56.368Z,1.77
2023-01-29T05:42:22.880Z,1.69
2023-01-29T05:44:49.508Z,1.72
2023-01-29T05:47:23.575Z,1.93
2023-01-29T05:49:50.055Z,1.89
2023-01-29T05:52:16.628Z,1.93
2023-01-29T05:54:43.686Z,2.09
2023-01-29T05:57:10.184Z,2.14
2023-01-29T05:59:36.903Z,2.09
2023-01-29T06:02:03.430Z,2.07
2023-01-29T06:04:29.890Z,2.09
2023-01-29T06:06:56.392Z,1.96
2023-01-29T06:09:22.824Z,2.03
2023-01-29T06:11:49.283Z,2.05
2023-01-29T06:14:16.854Z,2.06
2023-01-29T06:16:43.323Z,2.02
2023-01-29T06:19:09.788Z,1.90
2023-01-29T06:21:36.235Z,1.95
2023-01-29T06:24:03.112Z,1.99
2023-01-29T06:26:29.613Z,1.94
2023-01-29T06:28:56.287Z,1.95
2023-01-29T06:31:37.382Z,1.85
2023-01-29T06:34:05.607Z,1.41
2023-01-29T06:36:32.138Z,1.10
2023-01-29T06:38:58.730Z,1.01
2023-01-29T06:41:25.824Z,0.99
2023-01-29T06:43:52.439Z,1.03
2023-01-29T06:46:18.923Z,1.17
2023-01-29T06:48:45.404Z,1.21
2023-01-29T06:51:11.877Z,1.19
2023-01-29T06:53:39.673Z,1.36
2023-01-29T06:56:07.305Z,1.38
2023-01-29T06:58:40.026Z,1.50
2023-01-29T07:01:34.695Z,1.47
2023-01-29T07:04:03.007Z,1.46
2023-01-29T07:06:38.440Z,1.54
2023-01-29T07:09:05.034Z,1.69
2023-01-29T07:11:34.002Z,1.59
2023-01-29T07:14:00.661Z,1.72
2023-01-29T07:16:39.173Z,1.85
2023-01-29T07:19:05.652Z,1.91
2023-01-29T07:21:32.162Z,1.80
2023-01-29T07:23:58.664Z,1.63
2023-01-29T07:26:25.247Z,1.40
2023-01-29T07:28:51.743Z,1.22
2023-01-29T07:31:18.355Z,1.03
2023-01-29T07:33:45.231Z,1.04
2023-01-29T07:36:12.668Z,1.01
2023-01-29T07:38:39.632Z,0.93
2023-01-29T07:41:06.647Z,1.04
2023-01-29T07:43:33.257Z,1.01
2023-01-29T07:46:04.389Z,0.99
2023-01-29T07:48:30.921Z,1.03
2023-01-29T07:50:58.935Z,0.99
2023-01-29T07:53:26.121Z,0.94
2023-01-29T07:55:52.610Z,0.91
2023-01-29T07:58:19.168Z,0.78
2023-01-29T08:00:46.020Z,0.63
2023-01-29T08:03:16.255Z,0.44
2023-01-29T08:05:46.671Z,0.50
2023-01-29T08:08:13.675Z,0.68
2023-01-29T08:10:40.643Z,0.98
2023-01-29T08:13:08.218Z,1.00
2023-01-29T08:18:21.663Z,1.13
2023-01-29T08:20:48.120Z,1.15
2023-01-29T08:23:16.503Z,1.30
2023-01-29T08:25:43.494Z,1.41
2023-01-29T08:28:12.283Z,1.49
2023-01-29T08:30:39.514Z,1.53
2023-01-29T08:33:06.015Z,1.71
2023-01-29T08:35:32.524Z,1.71
2023-01-29T08:38:03.193Z,1.91
2023-01-29T08:40:32.422Z,1.87
2023-01-29T08:43:06.882Z,1.95
2023-01-29T08:45:36.765Z,1.79
2023-01-29T08:48:03.778Z,1.88
2023-01-29T08:50:31.809Z,2.08
2023-01-29T08:52:59.622Z,2.33
2023-01-29T08:55:26.563Z,2.59
2023-01-29T08:57:53.071Z,2.88
2023-01-29T09:00:20.020Z,3.11
2023-01-29T09:02:46.725Z,3.09
2023-01-29T09:05:13.265Z,3.11
2023-01-29T09:07:39.734Z,3.33
2023-01-29T09:10:06.517Z,3.40
2023-01-29T09:12:32.968Z,3.73
2023-01-29T09:14:59.483Z,3.74
2023-01-29T09:17:26.097Z,3.76
2023-01-29T09:19:53.330Z,3.90
2023-01-29T09:22:20.397Z,3.95
2023-01-29T09:24:46.877Z,4.00
2023-01-29T09:27:13.342Z,4.01
2023-01-29T09:29:40.283Z,4.12
2023-01-29T09:32:07.166Z,4.43
2023-01-29T09:34:34.082Z,4.49
2023-01-29T09:37:00.717Z,4.75
2023-01-29T09:39:27.223Z,4.73
2023-01-29T09:42:07.997Z,4.59
2023-01-29T09:44:48.645Z,4.78
2023-01-29T09:47:17.916Z,4.86
2023-01-29T09:49:52.272Z,4.98
2023-01-29T09:52:28.209Z,5.18
2023-01-29T09:55:00.885Z,5.24
2023-01-29T09:57:50.588Z,5.33
2023-01-29T10:00:36.358Z,5.30
2023-01-29T10:03:28.140Z,5.30
2023-01-29T10:06:02.253Z,5.53
2023-01-29T10:08:50.693Z,5.44
2023-01-29T10:12:05.060Z,5.92
2023-01-29T10:14:50.012Z,6.16
2023-01-29T10:17:46.325Z,6.33
2023-01-29T10:20:18.770Z,6.63
2023-01-29T10:22:55.260Z,6.75
2023-01-29T10:25:23.002Z,6.91
2023-01-29T10:27:53.179Z,7.01
2023-01-29T10:30:47.413Z,6.86
2023-01-29T10:33:20.126Z,6.94
2023-01-29T10:35:53.810Z,7.02
2023-01-29T10:38:31.855Z,6.92
2023-01-29T10:41:01.090Z,6.78
2023-01-29T10:43:51.769Z,7.06
2023-01-29T10:46:27.712Z,7.45
2023-01-29T10:49:18.973Z,7.49
2023-01-29T10:52:09.649Z,7.85
2023-01-29T10:54:41.976Z,8.04
2023-01-29T10:57:20.951Z,8.25
2023-01-29T11:00:13.187Z,8.72
2023-01-29T11:02:48.572Z,8.66
2023-01-29T11:05:24.180Z,8.84
2023-01-29T11:08:01.999Z,9.28
2023-01-29T11:10:30.334Z,9.84
2023-01-29T11:12:58.155Z,10.84
2023-01-29T11:15:34.970Z,11.00
2023-01-29T11:18:15.831Z,12.68
2023-01-29T11:20:44.100Z,14.10
2023-01-29T11:23:27.859Z,14.10
2023-01-29T11:25:56.325Z,16.75
2023-01-29T11:28:42.246Z,16.37
2023-01-29T11:31:26.203Z,17.59
2023-01-29T11:34:02.163Z,19.39
2023-01-29T11:36:37.021Z,19.41
2023-01-29T11:39:25.108Z,20.78
2023-01-29T11:42:00.593Z,20.70
2023-01-29T11:44:28.452Z,20.89
2023-01-29T11:46:57.260Z,18.05
2023-01-29T11:49:33.710Z,17.22
2023-01-29T11:52:04.446Z,18.07
2023-01-29T11:54:39.935Z,19.77
2023-01-29T11:57:23.265Z,19.97
2023-01-29T11:59:51.640Z,18.58
2023-01-29T12:02:28.042Z,18.61
2023-01-29T12:04:56.314Z,19.74
2023-01-29T12:07:22.850Z,19.59
2023-01-29T12:09:55.148Z,20.25
2023-01-29T12:12:31.697Z,20.26
2023-01-29T12:15:19.680Z,20.31
2023-01-29T12:17:49.453Z,19.48
2023-01-29T12:20:22.973Z,19.28
2023-01-29T12:23:01.712Z,19.12
2023-01-29T12:25:46.779Z,18.32
2023-01-29T12:28:25.347Z,18.50
2023-01-29T12:31:05.276Z,18.42
2023-01-29T12:33:48.779Z,19.01
2023-01-29T12:36:40.471Z,19.48
2023-01-29T12:39:13.151Z,19.99
2023-01-29T12:41:46.175Z,18.82
2023-01-29T12:44:29.627Z,17.92
2023-01-29T12:47:00.276Z,18.76
2023-01-29T12:49:30.328Z,20.86
2023-01-29T12:52:32.527Z,19.25
2023-01-29T12:55:08.165Z,20.32
2023-01-29T12:57:43.741Z,20.71
2023-01-29T13:00:15.502Z,21.00
2023-01-29T13:03:03.884Z,20.88
2023-01-29T13:05:36.683Z,20.66
2023-01-29T13:08:09.391Z,21.13
2023-01-29T13:10:40.932Z,21.01
2023-01-29T13:13:39.243Z,19.53
2023-01-29T13:16:11.142Z,17.92
2023-01-29T13:18:47.799Z,18.30
2023-01-29T13:21:19.319Z,17.38
2023-01-29T13:23:51.327Z,17.58
2023-01-29T13:26:19.567Z,17.58
2023-01-29T13:28:47.162Z,17.38
2023-01-29T13:31:26.860Z,16.74
2023-01-29T13:34:20.947Z,15.95
2023-01-29T13:36:51.858Z,15.09
2023-01-29T13:39:26.882Z,15.26
2023-01-29T13:41:55.579Z,14.61
2023-01-29T13:44:33.708Z,15.07
2023-01-29T13:47:02.794Z,15.08
2023-01-29T13:49:40.060Z,15.46
2023-01-29T13:52:34.612Z,15.24
2023-01-29T13:55:10.041Z,14.86
2023-01-29T13:57:46.202Z,15.39
2023-01-29T14:00:21.629Z,14.87
2023-01-29T14:03:13.952Z,15.43
2023-01-29T14:05:42.976Z,14.95
2023-01-29T14:08:12.176Z,14.87
2023-01-29T14:10:39.080Z,14.48
2023-01-29T14:13:11.629Z,14.12
2023-01-29T14:15:41.391Z,13.63
2023-01-29T14:18:10.926Z,13.33
2023-01-29T14:20:46.202Z,13.15
2023-01-29T14:23:44.067Z,12.72
2023-01-29T14:26:32.201Z,12.27
2023-01-29T14:29:14.488Z,12.31
2023-01-29T14:31:47.391Z,12.12
2023-01-29T14:34:19.581Z,12.25
2023-01-29T14:36:47.761Z,11.52
2023-01-29T14:39:36.162Z,11.06
2023-01-29T14:42:04.341Z,10.91
2023-01-29T14:44:45.911Z,10.06
2023-01-29T14:47:41.451Z,9.49
2023-01-29T14:50:32.909Z,9.10
2023-01-29T14:53:03.628Z,8.86
2023-01-29T14:55:37.158Z,8.78
2023-01-29T14:58:04.313Z,8.48
2023-01-29T15:00:36.451Z,8.44
2023-01-29T15:03:05.179Z,8.17
2023-01-29T15:05:35.705Z,7.90
2023-01-29T15:08:13.495Z,7.86
2023-01-29T15:10:45.738Z,7.71
2023-01-29T15:13:24.806Z,7.67
2023-01-29T15:15:59.392Z,7.56
2023-01-29T15:18:37.088Z,7.34
2023-01-29T15:21:11.717Z,7.26
2023-01-29T15:23:40.839Z,7.34
2023-01-29T15:26:11.637Z,7.39
2023-01-29T15:28:40.091Z,7.43
2023-01-29T15:31:13.326Z,7.30
2023-01-29T15:33:44.792Z,7.10
2023-01-29T15:36:20.686Z,6.98
2023-01-29T15:38:47.345Z,7.04
2023-01-29T15:41:18.488Z,6.95
2023-01-29T15:43:50.321Z,7.04
2023-01-29T15:46:26.063Z,7.08
2023-01-29T15:48:55.034Z,7.03
2023-01-29T15:51:25.174Z,6.86
2023-01-29T15:54:02.739Z,6.79
2023-01-29T15:56:34.087Z,6.86
2023-01-29T15:59:07.300Z,6.76
2023-01-29T16:01:35.828Z,6.65
2023-01-29T16:04:03.209Z,6.56
2023-01-29T16:06:39.446Z,6.57
2023-01-29T16:09:07.022Z,6.56
2023-01-29T16:11:35.346Z,6.57
2023-01-29T16:14:06.306Z,6.48
2023-01-29T16:16:32.932Z,6.40
2023-01-29T16:19:01.097Z,6.36
2023-01-29T16:21:33.091Z,6.20
2023-01-29T16:24:10.308Z,6.13
2023-01-29T16:26:42.086Z,6.16
2023-01-29T16:29:12.188Z,6.11
2023-01-29T16:31:40.745Z,6.26
2023-01-29T16:34:10.399Z,6.30
2023-01-29T16:36:37.157Z,6.20
2023-01-29T16:39:13.899Z,5.96
2023-01-29T16:41:46.215Z,5.89
2023-01-29T16:44:15.562Z,5.88
2023-01-29T16:46:46.582Z,5.96
2023-01-29T16:49:39.149Z,5.87
2023-01-29T16:52:37.311Z,5.78
2023-01-29T16:55:12.914Z,5.80
2023-01-29T16:57:40.919Z,5.81
2023-01-29T17:00:18.771Z,5.71
2023-01-29T17:02:45.307Z,5.66
2023-01-29T17:05:21.521Z,5.40
2023-01-29T17:07:48.535Z,5.44
2023-01-29T17:10:20.384Z,5.42
2023-01-29T17:12:56.401Z,5.40
2023-01-29T17:15:46.883Z,5.38
2023-01-29T17:18:31.042Z,5.36
2023-01-29T17:20:57.622Z,5.39
2023-01-29T17:23:24.106Z,5.34
2023-01-29T17:25:51.822Z,5.45
2023-01-29T17:28:18.617Z,5.42
2023-01-29T17:30:56.628Z,5.44
2023-01-29T17:33:29.365Z,5.51
2023-01-29T17:35:57.099Z,5.50
2023-01-29T17:38:26.481Z,5.43
2023-01-29T17:41:11.872Z,5.14
2023-01-29T17:43:38.757Z,4.94
2023-01-29T17:46:05.677Z,4.73
2023-01-29T17:48:33.410Z,4.74
2023-01-29T17:51:03.725Z,4.81
2023-01-29T17:53:44.307Z,4.77
2023-01-29T17:56:21.919Z,4.68
2023-01-29T17:58:48.486Z,4.70
2023-01-29T18:01:15.156Z,4.55
2023-01-29T18:03:46.905Z,4.39
2023-01-29T18:06:23.761Z,4.40
2023-01-29T18:08:51.210Z,4.32
2023-01-29T18:11:18.058Z,4.22
2023-01-29T18:13:44.530Z,4.16
2023-01-29T18:16:11.140Z,4.13
2023-01-29T18:18:37.665Z,4.17
2023-01-29T18:21:04.359Z,4.13
2023-01-29T18:23:31.371Z,4.11
2023-01-29T18:25:58.126Z,3.90
2023-01-29T18:28:24.897Z,4.01
2023-01-29T18:30:54.637Z,3.98
2023-01-29T18:33:21.281Z,3.96
2023-01-29T18:35:48.566Z,3.94
2023-01-29T18:38:15.540Z,3.87
2023-01-29T18:40:42.086Z,3.83
2023-01-29T18:43:08.995Z,3.78
2023-01-29T18:45:35.562Z,3.79
2023-01-29T18:48:02.890Z,3.97
2023-01-29T18:50:29.477Z,4.01
2023-01-29T18:52:56.347Z,3.93
2023-01-29T18:55:23.353Z,3.94
2023-01-29T18:58:29.312Z,3.79
2023-01-29T19:00:43.809Z,3.90
2023-01-29T19:03:10.881Z,3.97
2023-01-29T19:05:37.551Z,3.81
2023-01-29T19:08:05.408Z,3.90
2023-01-29T19:10:33.393Z,3.97
2023-01-29T19:12:59.950Z,4.13
2023-01-29T19:15:26.751Z,4.18
2023-01-29T19:18:04.743Z,4.32
2023-01-29T19:23:11.809Z,4.54
2023-01-29T19:25:47.572Z,4.57
2023-01-29T19:28:14.613Z,4.45
2023-01-29T19:30:41.197Z,4.37
2023-01-29T19:33:10.370Z,4.54
2023-01-29T19:35:37.159Z,4.63
2023-01-29T19:38:04.424Z,4.54
2023-01-29T19:40:31.087Z,4.40
2023-01-29T19:42:58.464Z,4.32
2023-01-29T19:45:49.549Z,4.44
2023-01-29T19:48:21.667Z,4.30
2023-01-29T19:50:56.522Z,4.43
2023-01-29T19:53:23.885Z,4.48
2023-01-29T19:55:58.871Z,4.45
2023-01-29T19:58:26.042Z,4.35
2023-01-29T20:01:00.483Z,4.16
2023-01-29T20:03:27.983Z,4.19
2023-01-29T20:05:55.485Z,4.16
2023-01-29T20:08:23.490Z,3.91
2023-01-29T20:10:50.448Z,3.94
2023-01-29T20:13:17.161Z,3.97
2023-01-29T20:15:47.872Z,3.89
2023-01-29T20:18:20.014Z,3.71
2023-01-29T20:20:49.026Z,3.62
2023-01-29T20:23:27.996Z,3.64
2023-01-29T20:26:02.883Z,3.74
2023-01-29T20:28:30.689Z,3.86
2023-01-29T20:30:59.028Z,4.02
2023-01-29T20:33:26.544Z,4.10
2023-01-29T20:36:02.182Z,4.10
2023-01-29T20:38:34.927Z,4.08
2023-01-29T20:41:07.663Z,4.01
2023-01-29T20:43:36.848Z,4.05
2023-01-29T20:46:04.595Z,4.11
2023-01-29T20:48:32.116Z,4.05
2023-01-29T20:51:12.461Z,4.13
2023-01-29T20:53:41.123Z,4.21
2023-01-29T20:56:09.220Z,4.21
2023-01-29T20:58:37.982Z,4.25
2023-01-29T21:01:11.027Z,4.22
2023-01-29T21:03:40.428Z,4.20
2023-01-29T21:06:13.372Z,4.10
2023-01-29T21:08:40.861Z,4.13
2023-01-29T21:11:09.226Z,4.09
2023-01-29T21:13:36.083Z,3.93
2023-01-29T21:16:03.125Z,3.77
2023-01-29T21:18:29.830Z,3.59
2023-01-29T21:20:56.533Z,3.56
2023-01-29T21:23:23.125Z,3.65
2023-01-29T21:25:49.699Z,3.68
2023-01-29T21:28:16.647Z,3.59
2023-01-29T21:30:43.235Z,3.45
2023-01-29T21:33:12.747Z,3.42
2023-01-29T21:35:40.177Z,3.54
2023-01-29T21:38:06.782Z,3.56
2023-01-29T21:40:33.390Z,3.33
2023-01-29T21:43:11.660Z,3.15
2023-01-29T21:45:40.399Z,3.12
2023-01-29T21:48:07.493Z,2.86
2023-01-29T21:50:35.048Z,2.73
2023-01-29T21:53:02.012Z,2.55
2023-01-29T21:55:28.848Z,2.50
2023-01-29T21:57:55.446Z,2.24
2023-01-29T22:00:23.902Z,2.12
2023-01-29T22:02:51.229Z,1.88
2023-01-29T22:05:20.008Z,1.97
2023-01-29T22:07:48.326Z,1.90
2023-01-29T22:10:16.929Z,1.88
2023-01-29T22:12:44.649Z,1.94
2023-01-29T22:15:23.990Z,2.01
2023-01-29T22:17:50.849Z,1.99
2023-01-29T22:20:18.050Z,2.21
2023-01-29T22:22:45.253Z,2.32
2023-01-29T22:25:11.816Z,2.27
2023-01-29T22:27:39.213Z,2.20
2023-01-29T22:30:06.972Z,2.20
2023-01-29T22:32:33.672Z,2.16
2023-01-29T22:35:00.187Z,2.00
2023-01-29T22:37:26.722Z,1.75
2023-01-29T22:39:53.242Z,1.53
2023-01-29T22:42:20.688Z,1.56
2023-01-29T22:44:48.249Z,1.84
2023-01-29T22:47:14.942Z,1.96
2023-01-29T22:49:41.567Z,2.01
2023-01-29T22:52:10.730Z,1.90
2023-01-29T22:54:41.616Z,2.12
2023-01-29T22:57:13.377Z,2.09
2023-01-29T22:59:41.270Z,2.26
2023-01-29T23:02:08.484Z,2.28
2023-01-29T23:04:35.182Z,2.36
2023-01-29T23:07:01.757Z,2.50
2023-01-29T23:09:28.347Z,2.18
2023-01-29T23:11:54.876Z,1.72
2023-01-29T23:14:21.422Z,1.40
2023-01-29T23:16:59.246Z,1.33
2023-01-29T23:19:27.082Z,1.60
2023-01-29T23:21:53.623Z,1.87
2023-01-29T23:24:30.282Z,2.14
2023-01-29T23:27:15.040Z,2.27
2023-01-29T23:29:46.384Z,2.44
2023-01-29T23:32:16.152Z,2.51
2023-01-29T23:34:42.646Z,2.47
2023-01-29T23:37:10.047Z,2.46
2023-01-29T23:39:36.541Z,2.36
2023-01-29T23:42:03.168Z,2.40
2023-01-29T23:44:29.692Z,2.52
2023-01-29T23:46:56.634Z,2.64
2023-01-29T23:49:23.503Z,2.76
2023-01-29T23:51:50.913Z,2.68
2023-01-29T23:54:17.737Z,2.41
2023-01-29T23:56:44.568Z,2.53
2023-01-29T23:59:11.481Z,2.66
